Time;durP1;ratioP1;P1;durP2;ratioP2;P2;SDS_P1;SDS_P2;PMS_P1;PMS_P2;Temp;Humidity;BMP_temperature;BMP_pressure;BME280_temperature;BME280_humidity;BME280_pressure;Samples;Min_cycle;Max_cycle;Signal;HPM_P1;HPM_P2
2021/08/17 00:01:49;;;;;;;3.08;1.80;;;20.50;99.90;;;;;;4998527;28;20037;-81
2021/08/17 00:04:14;;;;;;;2.47;1.77;;;20.40;99.90;;;;;;4998482;28;20022;-81
2021/08/17 00:06:40;;;;;;;3.28;1.83;;;20.50;99.90;;;;;;4997918;28;20520;-82
2021/08/17 00:09:05;;;;;;;2.28;1.85;;;20.50;99.90;;;;;;4978221;28;20049;-81
2021/08/17 00:11:31;;;;;;;2.38;1.70;;;20.60;99.90;;;;;;4996172;28;20078;-81
2021/08/17 00:13:57;;;;;;;2.42;1.90;;;20.50;99.90;;;;;;4998781;28;20026;-82
2021/08/17 00:16:23;;;;;;;1.98;1.70;;;20.40;99.90;;;;;;4998105;28;20029;-81
2021/08/17 00:18:48;;;;;;;2.67;1.50;;;20.30;99.90;;;;;;4997782;28;20116;-81
2021/08/17 00:21:15;;;;;;;2.15;1.67;;;20.10;99.90;;;;;;4997223;28;20092;-81
2021/08/17 00:23:41;;;;;;;3.50;1.80;;;20.10;99.90;;;;;;4994244;28;20070;-82
2021/08/17 00:26:07;;;;;;;6.13;1.98;;;19.90;99.90;;;;;;4998257;28;20065;-81
2021/08/17 00:28:33;;;;;;;4.22;1.60;;;20.00;99.90;;;;;;4997553;28;20023;-81
2021/08/17 00:30:58;;;;;;;3.00;1.83;;;20.10;99.90;;;;;;4997523;28;20038;-82
2021/08/17 00:33:24;;;;;;;2.85;1.60;;;20.10;99.90;;;;;;4997939;28;20061;-81
2021/08/17 00:35:52;;;;;;;2.58;1.60;;;20.20;99.90;;;;;;4993273;28;20055;-81
2021/08/17 00:38:18;;;;;;;1.70;1.60;;;20.10;99.90;;;;;;5005374;28;20467;-81
2021/08/17 00:40:43;;;;;;;2.22;1.83;;;20.10;99.90;;;;;;4997479;28;20506;-82
2021/08/17 00:43:10;;;;;;;2.88;2.15;;;20.00;99.90;;;;;;4997699;28;20023;-81
2021/08/17 00:45:36;;;;;;;2.40;1.65;;;20.00;99.90;;;;;;4997422;28;20049;-81
2021/08/17 00:48:02;;;;;;;2.45;1.80;;;19.90;99.90;;;;;;4995030;28;20046;-82
2021/08/17 00:50:30;;;;;;;2.15;1.83;;;19.90;99.90;;;;;;4977938;28;20015;-81
2021/08/17 00:52:57;;;;;;;2.65;1.77;;;19.90;99.90;;;;;;4996821;28;20030;-81
2021/08/17 00:55:23;;;;;;;2.75;1.67;;;19.90;99.90;;;;;;4997468;28;20495;-81
2021/08/17 00:57:49;;;;;;;1.90;1.70;;;20.10;99.90;;;;;;4997155;28;20073;-81
2021/08/17 01:00:15;;;;;;;5.30;2.10;;;20.10;99.90;;;;;;4996481;28;20536;-81
2021/08/17 01:02:41;;;;;;;3.97;2.05;;;20.10;99.90;;;;;;4993750;28;20484;-82
2021/08/17 01:05:08;;;;;;;2.13;1.90;;;19.90;99.90;;;;;;4997084;28;20015;-81
2021/08/17 01:07:34;;;;;;;2.20;2.00;;;19.80;99.90;;;;;;4996877;28;20069;-82
2021/08/17 01:10:00;;;;;;;3.75;1.80;;;19.80;99.90;;;;;;4997701;28;20491;-82
2021/08/17 01:12:26;;;;;;;2.55;1.70;;;19.80;99.90;;;;;;4996891;28;20029;-81
2021/08/17 01:14:51;;;;;;;2.92;1.95;;;19.70;99.90;;;;;;4992888;28;20014;-81
2021/08/17 01:17:19;;;;;;;3.20;1.80;;;19.70;99.90;;;;;;4997321;28;20526;-81
2021/08/17 01:19:45;;;;;;;2.40;1.92;;;19.70;99.90;;;;;;4996648;28;20034;-81
2021/08/17 01:22:12;;;;;;;2.47;1.98;;;19.70;99.90;;;;;;4979247;28;20026;-81
2021/08/17 01:24:38;;;;;;;2.65;1.85;;;19.60;99.90;;;;;;4996855;28;20064;-81
2021/08/17 01:27:04;;;;;;;2.47;2.00;;;19.60;99.90;;;;;;4994119;28;20042;-81
2021/08/17 01:29:30;;;;;;;3.05;1.95;;;19.50;99.90;;;;;;4994851;28;20036;-81
2021/08/17 01:31:57;;;;;;;4.35;1.92;;;19.50;99.90;;;;;;4997624;28;20022;-81
2021/08/17 01:34:23;;;;;;;3.45;1.92;;;19.30;99.90;;;;;;4996129;28;20041;-81
2021/08/17 01:36:49;;;;;;;2.50;1.77;;;19.30;99.90;;;;;;4996246;28;20053;-81
2021/08/17 01:39:16;;;;;;;2.55;1.95;;;19.30;99.90;;;;;;4996026;28;20022;-81
2021/08/17 01:41:42;;;;;;;3.00;1.80;;;19.40;99.90;;;;;;4992963;28;20034;-81
2021/08/17 01:44:14;;;;;;;2.20;2.00;;;19.30;99.90;;;;;;4996833;28;20089;-81
2021/08/17 01:46:44;;;;;;;2.95;1.83;;;19.10;99.90;;;;;;4996099;28;20042;-81
2021/08/17 01:49:20;;;;;;;2.60;1.80;;;19.10;99.90;;;;;;4995861;28;20026;-81
2021/08/17 01:51:47;;;;;;;2.38;1.90;;;19.10;99.90;;;;;;4996395;28;20426;-81
2021/08/17 01:54:14;;;;;;;2.28;1.90;;;18.90;99.90;;;;;;4995175;28;20061;-81
2021/08/17 01:56:40;;;;;;;2.85;1.92;;;18.90;99.90;;;;;;4992994;28;20036;-81
2021/08/17 01:59:06;;;;;;;2.40;2.20;;;18.90;99.90;;;;;;4996741;28;20019;-81
2021/08/17 02:01:32;;;;;;;3.83;1.95;;;18.80;99.90;;;;;;4996078;28;20361;-81
2021/08/17 02:03:58;;;;;;;6.65;2.30;;;18.70;99.90;;;;;;4995621;28;20046;-81
2021/08/17 02:06:24;;;;;;;2.88;2.05;;;18.70;99.90;;;;;;4978859;28;20073;-81
2021/08/17 02:08:49;;;;;;;2.65;2.00;;;18.80;99.90;;;;;;4991784;28;20372;-81
2021/08/17 02:11:15;;;;;;;4.28;1.88;;;18.80;99.90;;;;;;4996546;28;20037;-81
2021/08/17 02:13:41;;;;;;;2.78;2.05;;;18.70;99.90;;;;;;4996062;28;20030;-81
2021/08/17 02:16:07;;;;;;;3.78;2.08;;;18.70;99.90;;;;;;4996384;28;20022;-81
2021/08/17 02:18:35;;;;;;;2.22;2.00;;;18.70;99.90;;;;;;4995679;28;20022;-81
2021/08/17 02:21:02;;;;;;;3.60;2.50;;;18.70;99.90;;;;;;4992730;28;20026;-81
2021/08/17 02:23:29;;;;;;;2.20;2.00;;;18.80;99.90;;;;;;4994354;28;20027;-81
2021/08/17 02:25:55;;;;;;;2.55;1.85;;;18.90;99.90;;;;;;4978689;28;20438;-81
2021/08/17 02:28:21;;;;;;;5.35;2.30;;;18.90;99.90;;;;;;4995783;28;20054;-81
2021/08/17 02:30:48;;;;;;;2.60;2.13;;;18.80;99.90;;;;;;4995579;28;20101;-81
2021/08/17 02:33:14;;;;;;;2.83;2.30;;;18.70;99.90;;;;;;4994370;28;20065;-81
2021/08/17 02:35:41;;;;;;;2.50;2.20;;;18.70;99.90;;;;;;4992309;28;24782;-82
2021/08/17 02:38:08;;;;;;;5.35;2.35;;;18.70;99.90;;;;;;4996363;28;20031;-81
2021/08/17 02:40:33;;;;;;;2.50;2.30;;;18.60;99.90;;;;;;4995556;28;20026;-82
2021/08/17 02:43:00;;;;;;;2.72;2.10;;;18.70;99.90;;;;;;4995997;28;20146;-81
2021/08/17 02:45:25;;;;;;;2.30;2.10;;;18.70;99.90;;;;;;4995007;28;20061;-81
2021/08/17 02:47:58;;;;;;;2.65;2.22;;;18.70;99.90;;;;;;4991356;28;20074;-81
2021/08/17 02:50:25;;;;;;;3.08;2.33;;;18.70;99.90;;;;;;4994900;28;20026;-82
2021/08/17 02:52:51;;;;;;;3.20;2.25;;;18.70;99.90;;;;;;4978783;28;20569;-81
2021/08/17 02:55:17;;;;;;;3.47;2.40;;;18.70;99.90;;;;;;4995774;28;20015;-81
2021/08/17 02:57:51;;;;;;;4.55;2.22;;;18.60;99.90;;;;;;4995535;28;20455;-81
2021/08/17 03:00:18;;;;;;;2.67;2.33;;;18.60;99.90;;;;;;4994548;28;20372;-81
2021/08/17 03:02:44;;;;;;;2.40;2.10;;;18.60;99.90;;;;;;4974148;28;20030;-81
2021/08/17 03:05:10;;;;;;;2.90;2.33;;;18.60;99.90;;;;;;4996487;28;20110;-81
2021/08/17 03:07:36;;;;;;;3.05;2.33;;;18.60;99.90;;;;;;4995389;28;20034;-81
2021/08/17 03:10:04;;;;;;;3.70;2.35;;;18.60;99.90;;;;;;4995365;28;20081;-81
2021/08/17 03:12:29;;;;;;;2.60;2.40;;;18.60;99.90;;;;;;4995333;28;20029;-81
2021/08/17 03:14:55;;;;;;;3.38;2.63;;;18.60;99.90;;;;;;4992535;28;20113;-81
2021/08/17 03:17:21;;;;;;;2.95;2.08;;;18.70;99.90;;;;;;4999517;28;20015;-81
2021/08/17 03:19:46;;;;;;;3.92;2.50;;;18.60;99.90;;;;;;4998963;28;20037;-81
2021/08/17 03:22:12;;;;;;;2.30;2.10;;;18.70;99.90;;;;;;4998987;28;20022;-81
2021/08/17 03:24:37;;;;;;;2.67;2.33;;;18.60;99.90;;;;;;4998990;28;20120;-81
2021/08/17 03:27:03;;;;;;;3.40;2.22;;;18.50;99.90;;;;;;4996271;28;20038;-81
2021/08/17 03:29:29;;;;;;;3.03;2.17;;;18.60;99.90;;;;;;4997214;28;20030;-81
2021/08/17 03:31:54;;;;;;;2.70;2.22;;;18.60;99.90;;;;;;4999179;28;20019;-81
2021/08/17 03:34:20;;;;;;;3.45;2.30;;;18.60;99.90;;;;;;4998977;28;20038;-81
2021/08/17 03:36:45;;;;;;;2.67;2.20;;;18.50;99.90;;;;;;4998975;28;20026;-81
2021/08/17 03:39:12;;;;;;;5.63;2.47;;;18.50;99.90;;;;;;4997197;28;20037;-81
2021/08/17 03:41:37;;;;;;;4.50;2.85;;;18.60;99.90;;;;;;4996121;28;20051;-81
2021/08/17 03:44:03;;;;;;;2.63;2.42;;;18.40;99.90;;;;;;4998743;28;20033;-81
2021/08/17 03:46:29;;;;;;;2.80;2.40;;;18.60;99.90;;;;;;4998188;28;20085;-81
2021/08/17 03:48:55;;;;;;;3.05;2.33;;;18.40;99.90;;;;;;4999087;28;20029;-81
2021/08/17 03:51:20;;;;;;;2.95;2.75;;;18.50;99.90;;;;;;4998346;28;20056;-81
2021/08/17 03:53:46;;;;;;;3.25;2.40;;;18.40;99.90;;;;;;4994270;28;20023;-82
2021/08/17 03:56:12;;;;;;;2.97;2.42;;;18.40;99.90;;;;;;4999408;28;20026;-81
2021/08/17 03:58:38;;;;;;;2.67;2.38;;;18.50;99.90;;;;;;4997806;28;20085;-81
2021/08/17 04:01:03;;;;;;;3.65;2.55;;;18.50;99.90;;;;;;4998105;28;20037;-81
2021/08/17 04:03:29;;;;;;;2.60;2.25;;;18.50;99.90;;;;;;4998595;28;20064;-81
2021/08/17 04:05:54;;;;;;;3.80;2.50;;;18.60;99.90;;;;;;4994251;28;20029;-81
2021/08/17 04:08:20;;;;;;;2.58;2.35;;;18.60;99.90;;;;;;4998818;28;20439;-81
2021/08/17 04:10:47;;;;;;;3.60;2.53;;;18.40;99.90;;;;;;4998378;28;20035;-82
2021/08/17 04:13:13;;;;;;;3.17;2.38;;;18.50;99.90;;;;;;4997415;28;20022;-81
2021/08/17 04:15:38;;;;;;;2.72;2.50;;;18.40;99.90;;;;;;4980865;28;20483;-82
2021/08/17 04:18:04;;;;;;;4.25;2.13;;;18.50;99.90;;;;;;4995374;28;20357;-81
2021/08/17 04:20:32;;;;;;;3.78;2.33;;;18.70;99.90;;;;;;4996240;28;20530;-81
2021/08/17 04:22:57;;;;;;;2.85;2.40;;;18.70;99.90;;;;;;4998299;28;20113;-81
2021/08/17 04:25:23;;;;;;;2.80;2.40;;;18.80;99.90;;;;;;4997329;28;20022;-81
2021/08/17 04:27:49;;;;;;;3.95;2.22;;;18.80;99.90;;;;;;4998046;28;20247;-81
2021/08/17 04:30:15;;;;;;;3.35;2.65;;;18.80;99.90;;;;;;4996557;28;20025;-81
2021/08/17 04:32:41;;;;;;;4.18;2.85;;;18.80;99.90;;;;;;4976937;28;20038;-81
2021/08/17 04:35:07;;;;;;;3.47;2.70;;;18.80;99.90;;;;;;4998209;28;20050;-82
2021/08/17 04:37:33;;;;;;;3.35;2.72;;;18.90;99.90;;;;;;4998176;28;20037;-82
2021/08/17 04:39:58;;;;;;;2.50;2.30;;;19.00;99.90;;;;;;4997351;28;20030;-81
2021/08/17 04:42:24;;;;;;;2.95;2.65;;;18.90;99.90;;;;;;4997055;28;20136;-81
2021/08/17 04:44:50;;;;;;;3.80;2.90;;;18.90;99.90;;;;;;4993286;28;20057;-81
2021/08/17 04:47:15;;;;;;;4.63;2.70;;;18.80;99.90;;;;;;4998092;28;20089;-81
2021/08/17 04:49:41;;;;;;;3.28;2.47;;;18.80;99.90;;;;;;4997774;28;20317;-81
2021/08/17 04:52:06;;;;;;;4.90;2.60;;;18.80;99.90;;;;;;4997176;28;20550;-81
2021/08/17 04:54:32;;;;;;;2.90;2.55;;;18.80;99.90;;;;;;4997263;28;20063;-81
2021/08/17 04:56:58;;;;;;;3.60;2.58;;;18.90;99.90;;;;;;4993326;28;20027;-81
2021/08/17 04:59:23;;;;;;;4.15;2.58;;;18.90;99.90;;;;;;4996904;28;20118;-81
2021/08/17 05:01:49;;;;;;;4.13;2.70;;;18.70;99.90;;;;;;4996993;28;20483;-81
2021/08/17 05:04:15;;;;;;;3.97;2.72;;;18.80;99.90;;;;;;4997076;28;20022;-81
2021/08/17 05:06:41;;;;;;;2.80;2.60;;;18.80;99.90;;;;;;4997332;28;20049;-81
2021/08/17 05:09:07;;;;;;;3.13;2.63;;;19.00;99.90;;;;;;4994753;28;20101;-81
2021/08/17 05:11:32;;;;;;;4.05;2.72;;;18.90;99.90;;;;;;4994942;28;20491;-81
2021/08/17 05:13:58;;;;;;;4.53;3.20;;;18.80;99.90;;;;;;4997243;28;20105;-81
2021/08/17 05:16:24;;;;;;;2.70;2.50;;;18.70;99.90;;;;;;4997017;28;20030;-81
2021/08/17 05:18:50;;;;;;;4.10;2.45;;;18.80;99.90;;;;;;4996736;28;20054;-81
2021/08/17 05:21:16;;;;;;;3.20;2.47;;;18.80;99.90;;;;;;4995482;28;20021;-81
2021/08/17 05:23:41;;;;;;;3.35;2.70;;;18.80;99.90;;;;;;4992898;28;20043;-81
2021/08/17 05:26:07;;;;;;;4.45;3.20;;;18.70;99.90;;;;;;4996710;28;20061;-81
2021/08/17 05:28:32;;;;;;;4.22;3.42;;;18.70;99.90;;;;;;4996317;28;20023;-82
2021/08/17 05:30:58;;;;;;;5.18;3.25;;;18.50;99.90;;;;;;4996634;28;20506;-81
2021/08/17 05:33:24;;;;;;;3.65;3.03;;;18.60;99.90;;;;;;4996794;28;20054;-82
2021/08/17 05:35:49;;;;;;;5.28;3.47;;;18.60;99.90;;;;;;4992500;28;20042;-81
2021/08/17 05:38:15;;;;;;;3.72;3.28;;;18.60;99.90;;;;;;4996073;28;20561;-82
2021/08/17 05:40:40;;;;;;;4.78;3.28;;;18.50;99.90;;;;;;4996898;28;20038;-82
2021/08/17 05:43:06;;;;;;;4.97;4.00;;;18.50;99.90;;;;;;4996254;28;20419;-82
2021/08/17 05:45:32;;;;;;;4.65;4.03;;;18.50;99.90;;;;;;4996304;28;20030;-83
2021/08/17 05:47:58;;;;;;;5.10;3.97;;;18.50;99.90;;;;;;4992976;28;20576;-83
2021/08/17 05:50:24;;;;;;;5.10;3.85;;;18.60;99.90;;;;;;4996407;28;20050;-82
2021/08/17 05:52:49;;;;;;;5.22;3.80;;;18.50;99.90;;;;;;4996043;28;20081;-82
2021/08/17 05:55:15;;;;;;;6.35;4.07;;;18.70;99.90;;;;;;4995711;28;20078;-82
2021/08/17 05:57:41;;;;;;;5.22;4.07;;;18.70;99.90;;;;;;4996033;28;20033;-82
2021/08/17 06:00:13;;;;;;;5.38;4.05;;;18.60;99.90;;;;;;4994057;28;20030;-83
2021/08/17 06:02:39;;;;;;;6.70;4.47;;;18.50;99.90;;;;;;4993556;28;20022;-83
2021/08/17 06:05:05;;;;;;;5.03;4.53;;;18.30;99.90;;;;;;4996742;28;20121;-83
2021/08/17 06:07:30;;;;;;;5.25;4.32;;;18.20;99.90;;;;;;4978351;28;20093;-82
2021/08/17 06:09:56;;;;;;;7.18;5.00;;;18.30;99.90;;;;;;4995245;28;20430;-82
2021/08/17 06:12:23;;;;;;;5.88;4.95;;;18.20;99.90;;;;;;4995445;28;20026;-82
2021/08/17 06:14:48;;;;;;;8.35;5.25;;;18.20;99.90;;;;;;4991961;28;20499;-83
2021/08/17 06:17:14;;;;;;;5.90;4.82;;;18.30;99.90;;;;;;4996411;28;20113;-82
2021/08/17 06:19:39;;;;;;;7.57;5.60;;;18.20;99.90;;;;;;4995965;28;20395;-82
2021/08/17 06:22:05;;;;;;;6.55;5.18;;;18.30;99.90;;;;;;4995586;28;20470;-83
2021/08/17 06:24:31;;;;;;;6.72;5.18;;;18.20;99.90;;;;;;4995357;28;20129;-83
2021/08/17 06:26:57;;;;;;;6.10;4.85;;;18.20;99.90;;;;;;4992276;28;20410;-82
2021/08/17 06:29:22;;;;;;;7.40;5.10;;;18.20;99.90;;;;;;4995407;28;20023;-82
2021/08/17 06:31:49;;;;;;;7.05;4.90;;;18.30;99.90;;;;;;4996129;28;20033;-82
2021/08/17 06:34:14;;;;;;;6.40;5.20;;;18.40;99.90;;;;;;4995383;28;20049;-83
2021/08/17 06:36:40;;;;;;;6.10;4.85;;;18.50;99.90;;;;;;4996022;28;20038;-83
2021/08/17 06:39:07;;;;;;;7.45;5.70;;;18.50;99.90;;;;;;4992800;28;20459;-83
2021/08/17 06:41:33;;;;;;;7.80;5.00;;;18.70;99.90;;;;;;4993680;28;20053;-83
2021/08/17 06:44:00;;;;;;;8.45;5.57;;;18.70;99.90;;;;;;4996020;28;20161;-83
2021/08/17 06:46:26;;;;;;;8.63;5.40;;;18.70;99.90;;;;;;4995852;28;20043;-83
2021/08/17 06:48:52;;;;;;;6.18;5.07;;;18.90;99.90;;;;;;4997091;28;20101;-83
2021/08/17 06:51:18;;;;;;;7.90;5.55;;;18.90;99.90;;;;;;4998912;28;20180;-83
2021/08/17 06:53:44;;;;;;;6.15;4.90;;;19.00;99.90;;;;;;4995977;28;20045;-84
2021/08/17 06:56:09;;;;;;;6.78;5.22;;;19.00;99.90;;;;;;4982954;28;20027;-83
2021/08/17 06:58:35;;;;;;;8.60;5.60;;;19.00;99.90;;;;;;4999422;28;20042;-83
2021/08/17 07:01:04;;;;;;;7.25;5.63;;;19.10;99.90;;;;;;4999289;28;20026;-83
2021/08/17 07:03:30;;;;;;;7.03;5.68;;;19.20;99.90;;;;;;4999589;28;20048;-84
2021/08/17 07:05:56;;;;;;;8.32;6.15;;;19.30;99.90;;;;;;4995688;28;20038;-83
2021/08/17 07:08:22;;;;;;;8.95;5.80;;;19.40;99.90;;;;;;4998736;28;20084;-83
2021/08/17 07:10:48;;;;;;;8.82;6.15;;;19.40;99.90;;;;;;4999683;28;20086;-83
2021/08/17 07:13:14;;;;;;;10.63;6.18;;;19.30;99.90;;;;;;4998987;28;20034;-83
2021/08/17 07:15:41;;;;;;;11.32;7.07;;;19.40;99.90;;;;;;4999335;28;20034;-83
2021/08/17 07:18:08;;;;;;;9.27;6.22;;;19.40;99.90;;;;;;4996984;28;20026;-83
2021/08/17 07:20:34;;;;;;;8.43;6.30;;;19.50;99.90;;;;;;4997630;28;20034;-83
2021/08/17 07:22:59;;;;;;;8.55;6.20;;;19.50;99.90;;;;;;4999017;28;20025;-83
2021/08/17 07:25:25;;;;;;;8.82;6.22;;;19.60;99.90;;;;;;4999135;28;20129;-83
2021/08/17 07:27:51;;;;;;;8.30;6.07;;;19.50;99.90;;;;;;4998755;28;20582;-83
2021/08/17 07:30:16;;;;;;;10.30;7.70;;;19.60;99.90;;;;;;4998442;28;20052;-83
2021/08/17 07:32:44;;;;;;;7.72;6.60;;;19.80;99.90;;;;;;4995048;28;20113;-83
2021/08/17 07:35:11;;;;;;;9.40;6.90;;;20.00;99.90;;;;;;4999079;28;20072;-84
2021/08/17 07:37:38;;;;;;;8.60;6.22;;;20.00;99.90;;;;;;4999140;28;20392;-83
2021/08/17 07:40:05;;;;;;;10.15;7.60;;;20.00;99.90;;;;;;4998828;28;20030;-83
2021/08/17 07:42:31;;;;;;;9.48;7.45;;;19.90;99.90;;;;;;4998548;28;20066;-83
2021/08/17 07:44:56;;;;;;;9.10;6.95;;;20.00;99.90;;;;;;4995607;28;20031;-83
2021/08/17 07:47:22;;;;;;;10.40;7.60;;;19.90;99.90;;;;;;4998189;28;20034;-83
2021/08/17 07:49:47;;;;;;;11.05;7.32;;;20.30;99.90;;;;;;4998305;28;20026;-83
2021/08/17 07:52:13;;;;;;;9.55;7.40;;;20.20;99.90;;;;;;4998394;28;20022;-84
2021/08/17 07:54:39;;;;;;;10.43;7.75;;;20.20;99.90;;;;;;4998363;28;20037;-83
2021/08/17 07:57:04;;;;;;;10.40;7.60;;;20.20;99.90;;;;;;4996511;28;20036;-84
2021/08/17 07:59:30;;;;;;;10.98;7.80;;;20.30;99.90;;;;;;4996720;28;20031;-83
2021/08/17 08:01:56;;;;;;;10.85;8.45;;;20.20;99.90;;;;;;4998020;28;20022;-84
2021/08/17 08:04:22;;;;;;;11.70;8.40;;;20.20;99.90;;;;;;4980720;28;20432;-83
2021/08/17 08:06:48;;;;;;;11.50;8.13;;;20.10;99.90;;;;;;4998616;28;20034;-84
2021/08/17 08:09:13;;;;;;;13.32;7.80;;;20.30;99.90;;;;;;4996855;28;20083;-83
2021/08/17 08:11:39;;;;;;;12.35;8.30;;;20.40;99.90;;;;;;4995063;28;20031;-83
2021/08/17 08:14:04;;;;;;;10.68;8.20;;;20.60;99.90;;;;;;4998514;28;20097;-83
2021/08/17 08:16:30;;;;;;;9.82;7.68;;;20.60;99.90;;;;;;4998068;28;20030;-83
2021/08/17 08:18:56;;;;;;;12.20;8.60;;;20.70;99.90;;;;;;4997546;28;20038;-83
2021/08/17 08:21:21;;;;;;;12.50;8.60;;;20.50;99.90;;;;;;4998436;28;20125;-83
2021/08/17 08:23:47;;;;;;;11.43;8.10;;;20.60;99.90;;;;;;4993646;28;20038;-83
2021/08/17 08:26:13;;;;;;;12.60;8.18;;;20.80;99.90;;;;;;4998551;28;20030;-83
2021/08/17 08:28:38;;;;;;;10.23;7.82;;;20.70;99.90;;;;;;4992414;28;20100;-85
2021/08/17 08:31:04;;;;;;;10.25;8.82;;;21.10;99.90;;;;;;4992249;28;20022;-86
2021/08/17 08:33:30;;;;;;;10.50;8.25;;;21.00;99.90;;;;;;4971483;28;20029;-87
2021/08/17 08:35:56;;;;;;;11.38;7.97;;;21.10;99.90;;;;;;4983857;28;20039;-82
2021/08/17 08:38:22;;;;;;;12.07;8.43;;;21.10;99.90;;;;;;4980268;28;20512;-85
2021/08/17 08:40:50;;;;;;;10.82;9.00;;;21.10;99.90;;;;;;4988575;28;20034;-86
2021/08/17 08:43:24;;;;;;;12.55;8.50;;;21.20;99.90;;;;;;4988908;28;20084;-83
2021/08/17 08:45:50;;;;;;;10.93;8.35;;;21.30;99.90;;;;;;4983211;28;20022;-80
2021/08/17 08:48:19;;;;;;;11.48;7.90;;;21.30;99.90;;;;;;4989517;28;20517;-80
2021/08/17 08:50:46;;;;;;;13.38;9.05;;;21.30;99.90;;;;;;4991028;28;20038;-81
2021/08/17 08:53:12;;;;;;;11.57;9.02;;;21.40;99.90;;;;;;4984969;28;20022;-82
2021/08/17 08:55:38;;;;;;;12.80;8.65;;;21.60;99.90;;;;;;4992524;28;20027;-81
2021/08/17 08:58:04;;;;;;;10.70;8.68;;;21.60;99.90;;;;;;4992329;28;20045;-82
2021/08/17 09:00:30;;;;;;;11.13;9.02;;;21.60;99.90;;;;;;4992643;28;20030;-82
2021/08/17 09:02:56;;;;;;;11.18;8.25;;;21.60;99.90;;;;;;4992685;28;20053;-82
2021/08/17 09:05:22;;;;;;;13.57;8.73;;;21.80;99.90;;;;;;4992898;28;20479;-81
2021/08/17 09:07:49;;;;;;;12.77;9.57;;;22.20;99.90;;;;;;4992651;28;20487;-82
2021/08/17 09:10:22;;;;;;;13.35;9.40;;;22.20;99.90;;;;;;4993133;28;20038;-81
2021/08/17 09:12:53;;;;;;;17.08;12.18;;;22.30;99.90;;;;;;4991384;28;20033;-81
2021/08/17 09:15:27;;;;;;;14.35;10.35;;;21.90;99.90;;;;;;4992520;28;20388;-82
2021/08/17 09:17:56;;;;;;;16.08;10.35;;;22.10;99.90;;;;;;4976865;28;20029;-81
2021/08/17 09:20:33;;;;;;;14.30;11.10;;;22.20;99.90;;;;;;4992713;28;20033;-81
2021/08/17 09:23:19;;;;;;;14.98;11.30;;;22.20;99.90;;;;;;4992465;28;20498;-81
2021/08/17 09:25:44;;;;;;;13.73;10.65;;;22.20;99.90;;;;;;4991968;28;20491;-82
2021/08/17 09:28:29;;;;;;;13.43;10.40;;;22.50;99.90;;;;;;4991977;28;20038;-82
2021/08/17 09:30:56;;;;;;;13.20;10.20;;;22.80;99.90;;;;;;4997139;28;20029;-81
2021/08/17 09:33:22;;;;;;;15.75;11.25;;;22.40;99.90;;;;;;4977563;28;20026;-82
2021/08/17 09:35:55;;;;;;;12.70;9.60;;;22.30;99.90;;;;;;4991697;28;20057;-81
2021/08/17 09:38:21;;;;;;;13.70;9.80;;;22.40;99.90;;;;;;5005048;28;20022;-82
2021/08/17 09:40:46;;;;;;;14.02;10.05;;;22.50;99.90;;;;;;4996319;28;20030;-81
2021/08/17 09:43:19;;;;;;;12.98;9.70;;;22.70;99.90;;;;;;4996709;28;20034;-82
2021/08/17 09:45:47;;;;;;;13.05;10.27;;;22.70;99.90;;;;;;4996155;28;20030;-82
2021/08/17 09:48:14;;;;;;;13.23;10.38;;;22.80;99.90;;;;;;4995051;28;20026;-82
2021/08/17 09:50:42;;;;;;;13.38;10.10;;;23.10;99.90;;;;;;4993587;28;20100;-81
2021/08/17 09:53:20;;;;;;;10.85;8.82;;;23.10;99.90;;;;;;4997107;28;20030;-82
2021/08/17 09:55:57;;;;;;;15.55;9.50;;;22.90;99.90;;;;;;4996195;28;20497;-82
2021/08/17 09:58:35;;;;;;;11.60;9.18;;;22.70;99.90;;;;;;4996145;28;20447;-82
2021/08/17 10:01:06;;;;;;;13.35;10.40;;;23.00;99.90;;;;;;4995701;28;20014;-82
2021/08/17 10:03:32;;;;;;;14.38;9.85;;;23.00;99.90;;;;;;4996002;28;20076;-82
2021/08/17 10:05:58;;;;;;;15.45;10.48;;;23.20;99.90;;;;;;4992580;28;20030;-81
2021/08/17 10:08:26;;;;;;;12.70;9.98;;;23.30;99.90;;;;;;4995543;28;20035;-82
2021/08/17 10:10:53;;;;;;;13.02;9.75;;;23.30;99.90;;;;;;4996205;28;20032;-82
2021/08/17 10:13:21;;;;;;;12.93;8.82;;;23.90;99.90;;;;;;4995851;28;20085;-82
2021/08/17 10:15:48;;;;;;;10.63;8.32;;;23.70;99.90;;;;;;4995849;28;20113;-81
2021/08/17 10:18:17;;;;;;;10.35;8.50;;;24.00;99.90;;;;;;4994533;28;20396;-82
2021/08/17 10:20:45;;;;;;;11.55;8.88;;;24.50;99.90;;;;;;4992814;28;20373;-82
2021/08/17 10:23:15;;;;;;;11.55;8.77;;;24.80;99.90;;;;;;4996030;28;20027;-82
2021/08/17 10:25:56;;;;;;;14.43;9.32;;;24.80;99.90;;;;;;4994950;28;20026;-83
2021/08/17 10:28:37;;;;;;;11.98;8.80;;;24.40;99.90;;;;;;4996693;28;20026;-86
2021/08/17 10:31:12;;;;;;;10.13;8.30;;;24.50;99.90;;;;;;4995723;28;20030;-85
2021/08/17 10:33:52;;;;;;;10.65;8.57;;;24.80;99.90;;;;;;4996163;28;20105;-86
2021/08/17 10:36:36;;;;;;;12.00;8.43;;;25.40;99.90;;;;;;4995588;28;20066;-83
2021/08/17 10:39:29;;;;;;;12.18;8.80;;;26.20;99.90;;;;;;4981223;28;20561;-81
2021/08/17 10:41:55;;;;;;;12.80;9.30;;;27.30;99.90;;;;;;4969508;28;20034;-85
2021/08/17 10:44:32;;;;;;;11.52;9.02;;;27.40;99.90;;;;;;4995742;28;20582;-81
2021/08/17 10:47:11;;;;;;;12.57;10.02;;;29.10;99.90;;;;;;4995911;28;20492;-85
2021/08/17 10:49:48;;;;;;;13.00;9.70;;;30.40;99.90;;;;;;4996422;28;20019;-82
2021/08/17 10:52:32;;;;;;;13.23;10.32;;;33.70;99.90;;;;;;4995810;28;20110;-84
2021/08/17 10:55:23;;;;;;;13.25;9.60;;;36.40;99.90;;;;;;4995648;28;20014;-81
2021/08/17 10:57:53;;;;;;;14.23;9.32;;;38.30;99.90;;;;;;4995503;28;20029;-85
2021/08/17 11:00:45;;;;;;;15.30;9.60;;;36.90;99.90;;;;;;4994953;28;20026;-83
2021/08/17 11:03:11;;;;;;;12.63;9.48;;;36.80;99.90;;;;;;4980832;28;20031;-83
2021/08/17 11:05:51;;;;;;;11.50;8.55;;;37.40;99.90;;;;;;4993206;28;20022;-83
2021/08/17 11:08:31;;;;;;;10.80;8.65;;;38.60;99.90;;;;;;4996276;28;20030;-83
2021/08/17 11:11:17;;;;;;;14.80;9.77;;;37.30;99.90;;;;;;4978264;28;20054;-83
2021/08/17 11:14:03;;;;;;;11.35;9.45;;;35.00;99.90;;;;;;4995224;28;20076;-82
2021/08/17 11:16:29;;;;;;;11.02;9.23;;;36.40;99.90;;;;;;4994817;28;20502;-82
2021/08/17 11:18:58;;;;;;;11.02;8.95;;;35.90;99.90;;;;;;4995643;28;20034;-82
2021/08/17 11:21:31;;;;;;;11.77;9.05;;;34.60;99.90;;;;;;4991294;28;20022;-82
2021/08/17 11:24:14;;;;;;;10.70;9.20;;;37.60;99.90;;;;;;4977006;28;20030;-82
2021/08/17 11:26:43;;;;;;;11.40;9.13;;;39.20;99.90;;;;;;4992125;28;20027;-82
2021/08/17 11:29:14;;;;;;;10.00;8.68;;;39.70;99.90;;;;;;4995296;28;20419;-82
2021/08/17 11:31:45;;;;;;;11.13;8.68;;;39.30;99.90;;;;;;4994913;28;20390;-82
2021/08/17 11:34:17;;;;;;;9.75;8.75;;;39.70;99.90;;;;;;4994956;28;20105;-82
2021/08/17 11:36:51;;;;;;;10.52;9.30;;;40.80;99.90;;;;;;4998090;28;20026;-83
2021/08/17 11:39:38;;;;;;;10.43;9.00;;;39.40;99.90;;;;;;4980289;28;20038;-82
2021/08/17 11:42:18;;;;;;;10.43;9.32;;;39.80;99.90;;;;;;4981331;28;20029;-82
2021/08/17 11:44:46;;;;;;;11.30;9.68;;;40.00;99.90;;;;;;4995246;28;20031;-82
2021/08/17 11:47:15;;;;;;;11.38;9.75;;;39.40;99.90;;;;;;4998962;28;20049;-82
2021/08/17 11:49:41;;;;;;;10.73;9.48;;;38.60;99.90;;;;;;4998850;28;20032;-82
2021/08/17 11:52:09;;;;;;;11.60;10.30;;;38.70;99.90;;;;;;4997955;28;20502;-82
2021/08/17 11:54:41;;;;;;;10.60;9.50;;;40.20;99.90;;;;;;4998209;28;20041;-82
2021/08/17 11:57:07;;;;;;;10.35;9.07;;;40.00;99.90;;;;;;4995800;28;20110;-82
2021/08/17 11:59:42;;;;;;;10.45;9.38;;;40.00;99.90;;;;;;4995732;28;20558;-82
2021/08/17 12:02:08;;;;;;;9.82;8.50;;;40.20;99.90;;;;;;4997521;28;20036;-82
2021/08/17 12:04:34;;;;;;;10.13;9.02;;;39.80;99.90;;;;;;4998365;28;20043;-82
2021/08/17 12:07:15;;;;;;;9.90;8.63;;;38.80;99.90;;;;;;4998192;28;20117;-82
2021/08/17 12:09:44;;;;;;;10.60;9.50;;;37.70;99.90;;;;;;4998281;28;20479;-82
2021/08/17 12:12:12;;;;;;;10.52;9.50;;;38.80;99.90;;;;;;4995534;28;20026;-82
2021/08/17 12:14:41;;;;;;;10.88;9.77;;;38.40;99.90;;;;;;4995311;28;20026;-84
2021/08/17 12:17:09;;;;;;;11.30;10.18;;;39.20;99.90;;;;;;4998844;28;20506;-82
2021/08/17 12:19:42;;;;;;;11.25;9.95;;;38.70;99.90;;;;;;4998207;28;20101;-82
2021/08/17 12:22:23;;;;;;;10.77;9.68;;;37.50;99.90;;;;;;4997830;28;20018;-82
2021/08/17 12:24:51;;;;;;;10.40;9.30;;;37.90;99.90;;;;;;4997712;28;20035;-82
2021/08/17 12:27:27;;;;;;;11.48;9.43;;;38.20;99.90;;;;;;4996314;28;20034;-82
2021/08/17 12:29:54;;;;;;;10.07;9.02;;;37.30;99.90;;;;;;4977931;28;20026;-82
2021/08/17 12:32:21;;;;;;;11.50;10.07;;;39.10;99.90;;;;;;4997581;28;20109;-82
2021/08/17 12:34:50;;;;;;;12.10;9.68;;;38.50;99.90;;;;;;4997121;28;20507;-82
2021/08/17 12:37:44;;;;;;;10.48;8.85;;;37.50;99.90;;;;;;4997360;28;20030;-82
2021/08/17 12:40:11;;;;;;;9.98;8.40;;;38.40;99.90;;;;;;4988311;28;20046;-82
2021/08/17 12:42:42;;;;;;;10.52;9.43;;;38.00;99.90;;;;;;4997628;28;20036;-82
2021/08/17 12:45:14;;;;;;;11.40;10.20;;;38.80;99.90;;;;;;4995432;28;20037;-82
2021/08/17 12:47:54;;;;;;;12.18;10.52;;;38.30;99.90;;;;;;4994124;28;20503;-82